Time;durP1;ratioP1;P1;durP2;ratioP2;P2;SDS_P1;SDS_P2;PMS_P1;PMS_P2;Temp;Humidity;BMP_temperature;BMP_pressure;BME280_temperature;BME280_humidity;BME280_pressure;Samples;Min_cycle;Max_cycle;Signal;HPM_P1;HPM_P2
2022/06/21 00:00:32;;;;;;;8.00;7.20;;;;;;;15.16;72.15;101094.41;5060614;28;20829;-71
2022/06/21 00:03:03;;;;;;;9.20;7.10;;;;;;;14.80;72.64;101093.63;5059958;28;20434;-71
2022/06/21 00:05:34;;;;;;;13.87;7.70;;;;;;;14.90;72.52;101086.63;5058513;28;20554;-71
2022/06/21 00:08:03;;;;;;;15.53;7.93;;;;;;;14.90;72.62;101089.25;5059258;28;20436;-71
2022/06/21 00:10:34;;;;;;;16.87;7.90;;;;;;;14.96;72.43;101091.84;5059796;28;20451;-71
2022/06/21 00:12:59;;;;;;;14.47;7.20;;;;;;;14.72;72.90;101093.66;5059944;28;20399;-70
2022/06/21 00:15:25;;;;;;;14.57;7.30;;;;;;;14.86;72.38;101087.50;5058921;28;20725;-71
2022/06/21 00:17:50;;;;;;;18.00;8.60;;;;;;;14.78;72.83;101088.38;5060085;28;20500;-71
2022/06/21 00:20:20;;;;;;;17.50;6.60;;;;;;;14.79;73.07;101092.75;5060047;28;20173;-71
2022/06/21 00:22:46;;;;;;;11.67;7.03;;;;;;;14.87;72.43;101095.38;5058821;28;20419;-70
2022/06/21 00:25:18;;;;;;;13.77;8.03;;;;;;;14.99;72.39;101100.59;5059728;28;20698;-70
2022/06/21 00:27:43;;;;;;;15.23;6.30;;;;;;;14.83;71.94;101098.88;5059744;28;20444;-70
2022/06/21 00:30:09;;;;;;;14.13;9.27;;;;;;;15.01;71.89;101102.34;5059324;28;20644;-71
2022/06/21 00:32:35;;;;;;;11.37;7.37;;;;;;;14.49;73.21;101105.03;5059969;28;20174;-71
2022/06/21 00:35:00;;;;;;;12.40;6.67;;;;;;;15.05;72.14;101102.31;5059261;28;20569;-71
2022/06/21 00:37:25;;;;;;;9.73;7.40;;;;;;;15.04;72.02;101105.81;5058827;28;20174;-70
2022/06/21 00:39:51;;;;;;;16.67;6.87;;;;;;;14.90;72.20;101107.63;5059163;28;20172;-71
2022/06/21 00:42:26;;;;;;;11.33;7.77;;;;;;;14.77;72.71;101110.25;5059501;28;20174;-70
2022/06/21 00:45:34;;;;;;;18.83;7.70;;;;;;;14.47;73.71;101112.00;5058126;28;20406;-71
2022/06/21 00:48:30;;;;;;;10.70;7.13;;;;;;;14.75;72.77;101112.03;5059594;28;20839;-71
2022/06/21 00:51:00;;;;;;;11.03;7.10;;;;;;;14.87;72.55;101108.50;5058708;28;20662;-71
2022/06/21 00:53:34;;;;;;;11.97;7.67;;;;;;;14.56;73.43;101108.50;5057935;28;20471;-70
2022/06/21 00:56:03;;;;;;;9.53;7.20;;;;;;;14.86;72.49;101104.13;5038733;28;20823;-71
2022/06/21 00:58:31;;;;;;;15.27;7.33;;;;;;;14.61;73.37;101112.00;5039269;28;20388;-71
2022/06/21 01:01:05;;;;;;;13.23;7.47;;;;;;;14.49;73.86;101104.13;5048981;28;20493;-71
2022/06/21 01:03:40;;;;;;;15.23;7.60;;;;;;;14.60;73.52;101099.75;5058656;28;20386;-70
2022/06/21 01:06:27;;;;;;;14.23;7.37;;;;;;;14.87;72.63;101099.72;5038953;28;20755;-71
2022/06/21 01:08:57;;;;;;;15.20;8.17;;;;;;;14.85;72.89;101096.25;5041839;28;20436;-70
2022/06/21 01:11:25;;;;;;;12.63;7.97;;;;;;;14.74;72.97;101101.53;5058244;28;20402;-72
2022/06/21 01:13:53;;;;;;;12.00;7.53;;;;;;;14.76;73.00;101102.38;5057716;28;20443;-71
2022/06/21 01:16:20;;;;;;;15.83;8.10;;;;;;;14.75;72.90;101093.66;5057956;28;20383;-71
2022/06/21 01:18:45;;;;;;;9.47;7.30;;;;;;;14.70;73.02;101097.16;5058511;28;20394;-71
2022/06/21 01:21:14;;;;;;;14.33;8.10;;;;;;;14.71;73.69;101104.13;5058802;28;20478;-71
2022/06/21 01:23:51;;;;;;;11.77;7.60;;;;;;;14.73;73.45;101113.75;5058060;28;20177;-71
2022/06/21 01:26:43;;;;;;;13.40;7.63;;;;;;;14.59;73.75;101111.13;5057741;28;20440;-71
2022/06/21 01:29:15;;;;;;;15.30;7.90;;;;;;;14.80;73.26;101109.38;5058271;28;20662;-71
2022/06/21 01:31:42;;;;;;;16.90;8.13;;;;;;;14.77;72.98;101112.88;5057742;28;20471;-71
2022/06/21 01:34:15;;;;;;;19.23;8.47;;;;;;;14.64;73.99;101114.66;5058350;28;20661;-71
2022/06/21 01:36:42;;;;;;;15.50;8.37;;;;;;;14.52;73.96;101111.13;5058559;28;20644;-71
2022/06/21 01:39:13;;;;;;;15.63;8.70;;;;;;;14.40;74.63;101118.13;5057731;28;20554;-71
2022/06/21 01:42:06;;;;;;;15.00;8.60;;;;;;;14.33;74.56;101111.16;5058825;28;20467;-71
2022/06/21 01:44:46;;;;;;;11.63;7.83;;;;;;;14.68;73.45;101115.53;5054407;28;20406;-71
2022/06/21 01:47:19;;;;;;;18.13;8.20;;;;;;;14.36;73.87;101108.53;5057485;28;20457;-72
2022/06/21 01:49:49;;;;;;;17.60;8.57;;;;;;;14.25;74.36;101116.38;5058176;28;20481;-71
2022/06/21 01:52:18;;;;;;;14.33;8.00;;;;;;;14.44;74.45;101119.88;5058021;28;20446;-71
2022/06/21 01:54:47;;;;;;;17.37;7.77;;;;;;;14.51;73.71;101109.41;5057340;28;20387;-71
2022/06/21 01:57:13;;;;;;;9.50;8.30;;;;;;;14.69;72.97;101106.75;5057089;28;20427;-71
2022/06/21 01:59:41;;;;;;;13.13;7.87;;;;;;;14.75;72.77;101105.91;5058412;28;20482;-72
2022/06/21 02:02:17;;;;;;;20.27;8.53;;;;;;;14.32;73.79;101104.16;5058113;28;20844;-72
2022/06/21 02:05:12;;;;;;;17.93;8.23;;;;;;;14.28;73.78;101100.63;5056611;28;20439;-69
2022/06/21 02:07:42;;;;;;;16.43;7.63;;;;;;;14.60;72.86;101102.38;5057492;28;20450;-70
2022/06/21 02:10:32;;;;;;;17.03;7.53;;;;;;;14.13;73.80;101093.66;5058081;28;20410;-71
2022/06/21 02:13:06;;;;;;;15.80;7.90;;;;;;;14.54;72.84;101093.66;5057453;28;20823;-70
2022/06/21 02:15:48;;;;;;;15.97;8.70;;;;;;;14.38;72.90;101090.16;5057316;28;20468;-71
2022/06/21 02:18:15;;;;;;;17.17;8.10;;;;;;;14.14;73.12;101098.03;5057198;28;20496;-70
2022/06/21 02:20:52;;;;;;;14.77;8.40;;;;;;;14.27;73.26;101092.78;5057142;28;20799;-70
2022/06/21 02:23:18;;;;;;;16.30;6.73;;;;;;;14.38;73.43;101091.00;5056730;28;20405;-70
2022/06/21 02:25:44;;;;;;;15.70;7.77;;;;;;;14.40;73.40;101086.66;5040077;28;20438;-70
2022/06/21 02:28:13;;;;;;;13.93;7.10;;;;;;;14.38;73.20;101096.25;5056774;28;20434;-70
2022/06/21 02:30:40;;;;;;;15.47;7.47;;;;;;;14.14;73.37;101094.53;5057531;28;20402;-70
2022/06/21 02:33:09;;;;;;;13.20;6.70;;;;;;;14.30;73.51;101092.75;5057487;28;20398;-71
2022/06/21 02:35:38;;;;;;;12.00;6.93;;;;;;;14.34;73.26;101093.66;5057623;28;20473;-71
2022/06/21 02:38:06;;;;;;;10.80;6.97;;;;;;;14.26;72.75;101085.78;5056554;28;20422;-71
2022/06/21 02:40:41;;;;;;;12.43;7.23;;;;;;;14.36;73.03;101091.91;5056770;28;20393;-70
2022/06/21 02:43:15;;;;;;;14.43;7.57;;;;;;;14.45;72.28;101091.88;5056687;28;20406;-71
2022/06/21 02:45:51;;;;;;;9.60;6.80;;;;;;;14.43;72.34;101088.41;5056462;28;20566;-71
2022/06/21 02:48:20;;;;;;;13.80;7.67;;;;;;;14.25;72.70;101097.16;5039911;28;20394;-71
2022/06/21 02:50:49;;;;;;;14.70;7.33;;;;;;;14.26;72.51;101096.25;5057013;28;20428;-70
2022/06/21 02:53:22;;;;;;;13.73;6.77;;;;;;;14.20;72.55;101102.38;5056898;28;20403;-70
2022/06/21 02:55:53;;;;;;;12.50;7.10;;;;;;;14.38;72.94;101109.38;5056882;28;20395;-70
2022/06/21 02:58:32;;;;;;;22.13;8.43;;;;;;;14.16;73.60;101108.50;5057002;28;20420;-70
2022/06/21 03:00:59;;;;;;;16.17;7.67;;;;;;;14.40;72.67;101099.78;5056589;28;20718;-71
2022/06/21 03:03:26;;;;;;;16.60;7.40;;;;;;;14.10;73.79;101104.13;5056354;28;20430;-72
2022/06/21 03:05:58;;;;;;;13.30;7.27;;;;;;;13.89;74.55;101106.72;5057751;28;20459;-71
2022/06/21 03:08:25;;;;;;;14.90;7.70;;;;;;;14.18;74.00;101108.50;5056523;28;20418;-72
2022/06/21 03:10:51;;;;;;;13.70;7.10;;;;;;;14.07;74.26;101106.78;5056358;28;20428;-70
2022/06/21 03:13:20;;;;;;;12.70;7.73;;;;;;;14.10;73.84;101106.75;5057584;28;20465;-71
2022/06/21 03:15:49;;;;;;;11.80;8.10;;;;;;;13.82;74.63;101105.84;5056631;28;20572;-70
2022/06/21 03:18:22;;;;;;;13.93;6.97;;;;;;;14.16;74.23;101100.63;5057160;28;20478;-71
2022/06/21 03:20:49;;;;;;;17.03;8.03;;;;;;;14.18;73.55;101101.53;5057060;28;20420;-71
2022/06/21 03:23:15;;;;;;;11.90;7.47;;;;;;;14.30;72.80;101096.28;5057093;28;20382;-72
2022/06/21 03:25:51;;;;;;;11.47;7.07;;;;;;;14.48;72.65;101103.25;5056748;28;20894;-71
2022/06/21 03:28:38;;;;;;;13.87;7.10;;;;;;;14.13;73.10;101104.13;5037373;28;20406;-71
2022/06/21 03:31:20;;;;;;;10.80;6.47;;;;;;;14.42;72.38;101103.28;5043262;28;20769;-71
2022/06/21 03:33:49;;;;;;;13.43;6.70;;;;;;;14.63;71.94;101106.78;5056584;28;20406;-71
2022/06/21 03:36:17;;;;;;;15.73;6.77;;;;;;;14.97;70.63;101106.72;5057019;28;20432;-71
2022/06/21 03:38:48;;;;;;;9.97;5.97;;;;;;;15.47;67.94;101103.03;5056096;28;20463;-71
2022/06/21 03:44:05;;;;;;;12.77;5.67;;;;;;;16.40;64.50;101102.44;5059538;28;20462;-71
2022/06/21 03:46:35;;;;;;;10.17;5.50;;;;;;;17.05;63.31;101101.84;5059850;28;20873;-71
2022/06/21 03:49:24;;;;;;;9.50;5.00;;;;;;;17.89;60.55;101104.25;5059790;28;20737;-70
2022/06/21 03:51:50;;;;;;;6.93;4.90;;;;;;;18.18;58.18;101103.84;5060099;28;20394;-70
2022/06/21 03:54:20;;;;;;;8.13;4.40;;;;;;;18.50;57.10;101093.63;5059922;28;20466;-71
2022/06/21 03:57:05;;;;;;;12.30;5.03;;;;;;;17.55;59.22;101102.09;5059621;28;20403;-71
2022/06/21 04:00:04;;;;;;;9.23;4.30;;;;;;;19.07;54.99;101097.84;5059449;28;20416;-72
2022/06/21 04:02:36;;;;;;;9.30;5.20;;;;;;;18.72;55.56;101104.66;5027580;28;20503;-71
2022/06/21 04:05:09;;;;;;;9.93;4.40;;;;;;;19.32;53.78;101106.16;5059172;28;20410;-70
2022/06/21 04:07:44;;;;;;;11.50;4.30;;;;;;;19.42;53.88;101117.41;5060080;28;20851;-71
2022/06/21 04:10:16;;;;;;;7.40;4.27;;;;;;;19.77;52.65;101112.22;5059086;28;20406;-71
2022/06/21 04:12:50;;;;;;;9.07;4.67;;;;;;;20.12;52.50;101108.81;5059197;28;20408;-72
2022/06/21 04:15:21;;;;;;;10.70;4.57;;;;;;;19.21;53.37;101117.84;5058212;28;20521;-71
2022/06/21 04:17:51;;;;;;;6.63;4.17;;;;;;;18.66;54.96;101116.22;5056020;28;20444;-70
2022/06/21 04:20:35;;;;;;;10.00;4.20;;;;;;;20.37;51.07;101108.19;5042406;28;20461;-71
2022/06/21 04:23:13;;;;;;;9.83;4.43;;;;;;;20.56;50.10;101105.94;5056890;28;20419;-71
2022/06/21 04:25:44;;;;;;;7.43;4.20;;;;;;;19.53;52.52;101110.09;5059446;28;20509;-71
2022/06/21 04:28:14;;;;;;;6.93;4.00;;;;;;;19.74;52.25;101107.91;5059361;28;20430;-70
2022/06/21 04:30:57;;;;;;;5.63;3.90;;;;;;;20.34;50.77;101109.13;5058134;28;20416;-70
2022/06/21 04:33:35;;;;;;;7.93;4.53;;;;;;;20.96;48.86;101106.66;5057229;28;20489;-70
2022/06/21 04:36:07;;;;;;;8.83;4.77;;;;;;;20.57;49.67;101110.34;5054179;28;20475;-70
2022/06/21 04:38:43;;;;;;;8.83;4.80;;;;;;;21.29;48.66;101107.50;5058657;28;20424;-70
2022/06/21 04:41:22;;;;;;;8.10;4.80;;;;;;;21.36;47.43;101103.78;5056287;28;20439;-70
2022/06/21 04:43:59;;;;;;;9.90;4.73;;;;;;;21.11;47.80;101102.75;5056257;28;20435;-69
2022/06/21 04:46:37;;;;;;;11.87;5.90;;;;;;;22.56;44.54;101103.53;5058132;28;20455;-71
2022/06/21 04:49:16;;;;;;;10.30;4.47;;;;;;;22.15;45.74;101106.66;5051360;28;20443;-70
2022/06/21 04:51:50;;;;;;;9.50;4.20;;;;;;;22.08;46.45;101113.06;5051526;28;20435;-71
2022/06/21 04:54:26;;;;;;;8.30;4.97;;;;;;;23.42;43.70;101118.22;5055811;28;20417;-70
2022/06/21 04:57:06;;;;;;;8.33;4.60;;;;;;;21.30;46.87;101121.63;5045449;28;20452;-70
2022/06/21 04:59:35;;;;;;;10.50;4.60;;;;;;;23.21;43.80;101120.72;5039918;28;20434;-69
2022/06/21 05:02:01;;;;;;;9.37;4.57;;;;;;;23.53;43.01;101121.31;5057947;28;20428;-70
2022/06/21 05:04:29;;;;;;;7.27;4.53;;;;;;;21.98;45.35;101124.91;5057184;28;20844;-70
2022/06/21 05:06:57;;;;;;;4.93;4.17;;;;;;;21.95;45.45;101119.72;5058078;28;20549;-70
2022/06/21 05:09:26;;;;;;;9.10;4.40;;;;;;;22.75;44.42;101127.69;5056940;28;20454;-71
2022/06/21 05:12:01;;;;;;;9.00;4.27;;;;;;;23.03;43.52;101116.09;5058017;28;20937;-71
2022/06/21 05:14:31;;;;;;;10.73;4.67;;;;;;;23.84;41.45;101113.91;5057729;28;20593;-71
2022/06/21 05:16:57;;;;;;;7.73;3.80;;;;;;;23.87;41.92;101119.97;5058653;28;20428;-70
2022/06/21 05:19:36;;;;;;;9.63;4.00;;;;;;;24.37;40.81;101120.69;5059952;28;20593;-71
2022/06/21 05:22:11;;;;;;;10.50;4.17;;;;;;;23.86;41.66;101118.25;5060390;28;21772;-70
2022/06/21 05:24:36;;;;;;;8.70;4.20;;;;;;;22.96;42.98;101119.88;5058466;28;20426;-72
2022/06/21 05:27:07;;;;;;;11.10;4.10;;;;;;;23.90;41.76;101116.38;5056497;28;20464;-71
2022/06/21 05:29:43;;;;;;;7.97;3.90;;;;;;;23.65;41.49;101108.44;5054919;28;20215;-76
2022/06/21 05:32:14;;;;;;;7.50;3.90;;;;;;;23.60;41.83;101115.72;5053912;28;20555;-75
2022/06/21 05:34:44;;;;;;;6.70;3.90;;;;;;;24.41;40.98;101108.94;5052364;28;20428;-74
2022/06/21 05:37:19;;;;;;;8.47;4.03;;;;;;;24.83;40.46;101109.81;5058138;28;20412;-74
2022/06/21 05:39:48;;;;;;;9.17;4.27;;;;;;;24.92;39.44;101113.91;5037955;28;20574;-73
2022/06/21 05:42:16;;;;;;;6.80;3.70;;;;;;;25.00;38.96;101120.59;5056588;28;20498;-71
2022/06/21 05:44:47;;;;;;;9.47;4.03;;;;;;;25.15;39.03;101115.53;5040225;28;20440;-71
2022/06/21 05:47:18;;;;;;;9.27;4.13;;;;;;;25.50;38.75;101110.41;5057950;28;20728;-73
2022/06/21 05:49:43;;;;;;;8.37;4.70;;;;;;;25.65;38.24;101104.31;5057358;28;20411;-72
2022/06/21 05:52:18;;;;;;;7.67;4.33;;;;;;;25.82;37.85;101106.19;5058225;28;20424;-73
2022/06/21 05:54:52;;;;;;;10.47;3.50;;;;;;;25.29;39.02;101109.53;5056864;28;20173;-73
2022/06/21 05:57:20;;;;;;;9.07;5.70;;;;;;;25.47;38.76;101107.88;5057616;28;20826;-71
2022/06/21 05:59:45;;;;;;;14.33;7.50;;;;;;;26.25;37.32;101113.03;5057755;28;20447;-74
2022/06/21 06:02:33;;;;;;;8.33;4.27;;;;;;;25.35;38.82;101123.50;5056478;28;20817;-73
2022/06/21 06:05:04;;;;;;;6.83;3.97;;;;;;;25.93;37.67;101123.50;5053287;28;20201;-73
2022/06/21 06:07:52;;;;;;;8.90;3.87;;;;;;;26.71;36.22;101126.75;5051802;28;20833;-73
2022/06/21 06:10:20;;;;;;;8.40;3.90;;;;;;;26.87;35.81;101119.66;5041413;28;20436;-74
2022/06/21 06:12:48;;;;;;;10.13;4.37;;;;;;;25.92;37.42;101132.44;5051544;28;20519;-70
2022/06/21 06:15:21;;;;;;;6.57;3.70;;;;;;;26.20;37.54;101126.63;5057672;28;20869;-75
2022/06/21 06:17:50;;;;;;;4.77;3.57;;;;;;;26.18;37.29;101126.72;5054284;28;20465;-74
2022/06/21 06:20:36;;;;;;;7.70;3.53;;;;;;;25.57;38.48;101129.66;5056832;28;20443;-74
2022/06/21 06:23:14;;;;;;;6.77;3.80;;;;;;;25.85;37.50;101122.03;5056739;28;20708;-73
2022/06/21 06:25:53;;;;;;;6.30;3.60;;;;;;;25.86;37.56;101112.25;5056683;28;20494;-73
2022/06/21 06:28:19;;;;;;;6.43;4.03;;;;;;;27.61;34.60;101112.13;5040106;28;20432;-73
2022/06/21 06:30:53;;;;;;;7.97;3.80;;;;;;;28.13;34.41;101102.06;5054686;28;20497;-72
2022/06/21 06:33:23;;;;;;;6.90;3.80;;;;;;;27.21;35.73;101112.50;5052876;28;20421;-71
2022/06/21 06:35:49;;;;;;;10.17;3.80;;;;;;;28.18;33.71;101110.72;5057449;28;20431;-74
2022/06/21 06:38:16;;;;;;;8.67;3.50;;;;;;;27.80;34.69;101111.94;5056633;28;20416;-72
2022/06/21 06:40:52;;;;;;;8.30;3.67;;;;;;;27.46;34.95;101124.56;5057447;28;20442;-74
2022/06/21 06:43:32;;;;;;;7.10;3.40;;;;;;;26.21;36.40;101136.41;5051605;28;20496;-73
2022/06/21 06:45:58;;;;;;;8.27;4.40;;;;;;;26.06;36.47;101135.34;5047617;28;20506;-73
2022/06/21 06:48:29;;;;;;;5.53;3.40;;;;;;;25.69;37.69;101131.75;5055387;28;20436;-72
2022/06/21 06:51:05;;;;;;;11.20;4.10;;;;;;;25.05;39.02;101131.94;5049791;28;20178;-71
2022/06/21 06:53:37;;;;;;;8.57;4.47;;;;;;;26.18;37.50;101133.84;5055264;28;20419;-74
2022/06/21 06:56:13;;;;;;;8.17;3.90;;;;;;;27.43;35.53;101122.06;5038953;28;20444;-73
2022/06/21 06:58:53;;;;;;;6.10;3.60;;;;;;;28.02;33.99;101122.34;5048311;28;20439;-76
2022/06/21 07:01:25;;;;;;;8.60;4.20;;;;;;;27.26;34.69;101132.78;5045703;28;20431;-75
2022/06/21 07:03:57;;;;;;;5.27;3.30;;;;;;;28.00;34.06;101126.03;5047644;28;20460;-74
2022/06/21 07:06:41;;;;;;;7.73;3.80;;;;;;;26.96;35.31;101131.69;5036750;28;20491;-74
2022/06/21 07:09:27;;;;;;;7.17;5.00;;;;;;;28.70;32.83;101128.22;5036522;28;20427;-75
2022/06/21 07:12:00;;;;;;;10.23;4.60;;;;;;;27.35;35.01;101143.00;5053713;28;20872;-75
2022/06/21 07:14:26;;;;;;;12.10;6.17;;;;;;;28.69;32.38;101129.19;5057724;28;20719;-75
2022/06/21 07:17:13;;;;;;;8.53;5.17;;;;;;;27.45;35.27;101133.53;5060792;28;20724;-73
2022/06/21 07:19:38;;;;;;;8.20;3.80;;;;;;;27.72;34.77;101140.97;5060284;28;20416;-74
2022/06/21 07:22:14;;;;;;;5.73;3.20;;;;;;;27.73;34.10;101135.53;5060178;28;20832;-73
2022/06/21 07:24:43;;;;;;;6.93;3.67;;;;;;;27.90;33.65;101125.66;5060297;28;20193;-72
2022/06/21 07:27:13;;;;;;;6.97;3.70;;;;;;;27.46;34.65;101127.22;5060059;28;20452;-71
2022/06/21 07:29:53;;;;;;;8.63;3.50;;;;;;;28.86;31.79;101122.75;5060912;28;20430;-73
2022/06/21 07:32:23;;;;;;;7.27;3.83;;;;;;;29.10;31.66;101108.78;5059271;28;20454;-73
2022/06/21 07:34:53;;;;;;;6.30;3.20;;;;;;;30.36;29.93;101115.88;5059745;28;20424;-73
2022/06/21 07:37:49;;;;;;;14.57;4.50;;;;;;;30.04;30.67;101114.41;5059967;28;20416;-72
2022/06/21 07:40:22;;;;;;;4.73;3.47;;;;;;;28.13;32.92;101123.50;5040538;28;20421;-69
2022/06/21 07:43:05;;;;;;;5.67;3.30;;;;;;;28.70;33.09;101117.50;5039644;28;20524;-72
2022/06/21 07:45:39;;;;;;;7.10;4.30;;;;;;;28.84;32.85;101124.69;5040453;28;20461;-71
2022/06/21 07:48:10;;;;;;;9.30;3.90;;;;;;;27.20;35.75;101131.31;5039655;28;20421;-70
2022/06/21 07:50:42;;;;;;;8.77;3.80;;;;;;;27.98;34.06;101126.13;5054113;28;20436;-74
2022/06/21 07:53:19;;;;;;;4.10;3.70;;;;;;;27.85;33.58;101136.66;5039883;28;20425;-77
2022/06/21 07:56:25;;;;;;;6.83;3.50;;;;;;;28.18;33.05;101138.38;5047186;28;20550;-70
2022/06/21 07:58:56;;;;;;;4.93;3.67;;;;;;;28.92;31.75;101137.66;5042543;28;20440;-71
2022/06/21 08:07:38;;;;;;;5.20;3.87;;;;;;;29.01;32.27;101131.69;5051723;28;20519;-73
2022/06/21 08:10:09;;;;;;;5.60;3.53;;;;;;;28.57;32.74;101126.22;5042440;28;20433;-76
2022/06/21 08:12:35;;;;;;;10.07;3.80;;;;;;;29.22;32.37;101124.13;5058708;28;20689;-73
2022/06/21 08:15:02;;;;;;;5.87;3.40;;;;;;;28.62;32.57;101134.03;5053444;28;20487;-73
2022/06/21 08:17:43;;;;;;;5.73;3.50;;;;;;;28.56;33.24;101131.69;5036896;28;20188;-73
2022/06/21 08:20:14;;;;;;;7.70;3.90;;;;;;;29.33;31.43;101129.69;5036597;28;20758;-72
2022/06/21 08:22:45;;;;;;;6.10;3.87;;;;;;;28.73;31.97;101136.09;5022676;28;20822;-72
2022/06/21 08:25:34;;;;;;;4.53;3.13;;;;;;;29.21;32.45;101128.66;5038147;28;20782;-70
2022/06/21 08:28:29;;;;;;;5.00;3.67;;;;;;;29.00;32.35;101130.84;5030837;28;20827;-72
2022/06/21 08:31:02;;;;;;;4.57;3.30;;;;;;;28.56;31.95;101127.22;5005953;28;20687;-71
2022/06/21 08:33:41;;;;;;;6.67;3.40;;;;;;;28.97;32.33;101132.84;5039663;28;20449;-73
2022/06/21 08:36:13;;;;;;;5.20;3.40;;;;;;;29.62;31.13;101132.38;5030188;28;20480;-73
2022/06/21 08:39:18;;;;;;;7.00;3.40;;;;;;;28.59;32.45;101131.53;5039284;28;20479;-74
2022/06/21 08:41:56;;;;;;;5.13;3.40;;;;;;;29.54;30.11;101134.69;4990586;28;20707;-73
2022/06/21 08:48:09;;;;;;;4.50;3.43;;;;;;;29.21;30.70;101133.13;5019696;28;20417;-76
2022/06/21 08:51:13;;;;;;;6.83;3.30;;;;;;;27.64;32.76;101143.22;5022242;28;20397;-75
2022/06/21 08:54:11;;;;;;;6.90;3.87;;;;;;;28.03;33.70;101141.94;5000250;28;20413;-73
2022/06/21 08:57:19;;;;;;;4.50;3.47;;;;;;;28.48;33.11;101142.91;4953199;28;20459;-72
2022/06/21 08:59:47;;;;;;;5.27;3.37;;;;;;;28.05;33.62;101142.75;4924511;29;20440;-74
2022/06/21 09:02:55;;;;;;;4.50;3.37;;;;;;;29.27;30.87;101140.84;5034143;28;20459;-74
2022/06/21 09:06:08;;;;;;;5.13;3.50;;;;;;;29.00;32.02;101141.56;4959474;29;20520;-74
2022/06/21 09:08:52;;;;;;;6.30;4.07;;;;;;;29.20;31.48;101153.75;4940296;29;20679;-73
2022/06/21 09:11:41;;;;;;;5.00;3.70;;;;;;;28.84;31.63;101151.53;5032920;28;20429;-73
2022/06/21 09:14:51;;;;;;;9.43;3.57;;;;;;;29.32;30.80;101145.91;5040584;28;20663;-74
2022/06/21 09:17:39;;;;;;;3.87;3.30;;;;;;;29.62;30.56;101155.66;4981768;28;20426;-74
2022/06/21 09:20:26;;;;;;;7.30;3.37;;;;;;;28.62;31.07;101159.97;4995297;28;20443;-75
2022/06/21 09:23:07;;;;;;;4.70;3.40;;;;;;;29.04;31.02;101153.84;5035167;28;20428;-73
2022/06/21 09:25:51;;;;;;;6.07;3.40;;;;;;;28.08;31.81;101161.31;5055559;28;20684;-73
2022/06/21 09:28:36;;;;;;;5.10;3.43;;;;;;;27.87;32.34;101166.94;5053791;28;20432;-73
2022/06/21 09:31:30;;;;;;;6.13;3.40;;;;;;;28.19;31.63;101158.88;5041888;28;20891;-70
2022/06/21 09:34:07;;;;;;;4.80;3.50;;;;;;;28.39;31.81;101160.38;5046015;28;20463;-70
2022/06/21 09:37:02;;;;;;;5.00;3.47;;;;;;;28.25;30.80;101154.97;5061385;28;20790;-70
2022/06/21 09:39:52;;;;;;;5.53;3.07;;;;;;;27.86;30.00;101156.28;5026530;28;20807;-70
2022/06/21 09:42:26;;;;;;;8.43;3.40;;;;;;;29.16;28.92;101146.88;5051132;28;20448;-69
2022/06/21 09:45:12;;;;;;;5.37;3.40;;;;;;;28.99;28.45;101155.09;5057859;28;20846;-69
2022/06/21 09:47:47;;;;;;;4.20;3.23;;;;;;;29.02;29.90;101160.25;5058212;28;20482;-70
2022/06/21 09:50:27;;;;;;;3.50;2.97;;;;;;;28.95;30.22;101156.25;5057736;28;20923;-70
2022/06/21 09:53:11;;;;;;;7.37;3.83;;;;;;;29.20;30.35;101153.75;5058941;28;20416;-69
2022/06/21 09:55:51;;;;;;;5.43;3.40;;;;;;;28.77;30.86;101151.03;5058526;28;20404;-71
2022/06/21 09:58:27;;;;;;;4.70;3.30;;;;;;;29.21;29.92;101159.97;5042455;28;20727;-72
2022/06/21 10:00:55;;;;;;;5.60;3.13;;;;;;;30.11;28.16;101154.31;5057820;28;20416;-70
2022/06/21 10:03:27;;;;;;;3.40;2.87;;;;;;;29.28;28.82;101144.38;5058009;28;20438;-71
2022/06/21 10:06:17;;;;;;;6.33;3.43;;;;;;;29.71;28.50;101157.75;5039690;28;20468;-71
2022/06/21 10:09:01;;;;;;;4.20;3.00;;;;;;;29.02;29.24;101150.41;5056303;28;20478;-71
2022/06/21 10:11:32;;;;;;;3.73;2.90;;;;;;;29.22;29.50;101156.34;5049968;28;20669;-70
2022/06/21 10:14:19;;;;;;;4.10;2.90;;;;;;;29.76;28.38;101158.34;5054304;28;20678;-69
2022/06/21 10:17:21;;;;;;;5.50;3.60;;;;;;;28.12;29.92;101144.09;5058062;28;20431;-70
2022/06/21 10:19:59;;;;;;;3.53;2.97;;;;;;;30.52;27.66;101148.88;5057089;28;20892;-69
2022/06/21 10:22:51;;;;;;;3.03;2.70;;;;;;;30.27;27.60;101149.66;5062869;28;20729;-69
2022/06/21 10:25:27;;;;;;;4.60;3.63;;;;;;;28.95;29.74;101151.72;5033998;28;20669;-71
2022/06/21 10:28:23;;;;;;;4.43;3.10;;;;;;;29.93;28.72;101145.66;5052520;28;20880;-69
2022/06/21 10:30:59;;;;;;;7.60;3.70;;;;;;;31.12;27.46;101151.97;5055924;28;20439;-69
2022/06/21 10:33:40;;;;;;;4.03;3.10;;;;;;;31.34;26.38;101143.19;5057237;28;20477;-70
2022/06/21 10:36:21;;;;;;;5.37;3.30;;;;;;;29.82;27.97;101144.50;5052976;28;20717;-71
2022/06/21 10:38:52;;;;;;;5.47;2.93;;;;;;;30.17;27.71;101143.16;5070679;28;20511;-70
2022/06/21 10:41:21;;;;;;;5.93;3.30;;;;;;;29.67;28.20;101145.50;5062799;28;20459;-71
2022/06/21 10:44:05;;;;;;;4.30;2.90;;;;;;;29.18;29.27;101141.38;5054324;28;20852;-74
2022/06/21 10:46:38;;;;;;;3.80;2.83;;;;;;;29.85;27.25;101143.41;5068995;28;20504;-71
2022/06/21 10:49:56;;;;;;;4.03;3.40;;;;;;;29.83;27.21;101142.66;5064942;28;20440;-70
2022/06/21 10:52:53;;;;;;;4.57;3.10;;;;;;;28.44;28.36;101140.47;5043997;28;20458;-73
2022/06/21 10:55:37;;;;;;;3.13;2.83;;;;;;;28.84;27.92;101138.97;5058329;28;20431;-73
2022/06/21 10:58:26;;;;;;;4.40;3.00;;;;;;;28.44;28.78;101138.66;5056982;28;20411;-71
2022/06/21 11:01:18;;;;;;;3.37;2.90;;;;;;;28.88;28.62;101116.34;5054647;28;20431;-71
2022/06/21 11:04:09;;;;;;;4.63;3.20;;;;;;;29.10;28.23;101114.16;5048360;28;20424;-71
2022/06/21 11:07:04;;;;;;;2.87;2.50;;;;;;;28.79;28.09;101122.28;5042653;28;20547;-71
2022/06/21 11:09:43;;;;;;;6.00;3.10;;;;;;;29.74;28.43;101115.44;5036798;28;20424;-72
2022/06/21 11:15:18;;;;;;;5.20;2.93;;;;;;;28.50;28.75;101114.16;5040818;28;20595;-72
2022/06/21 11:18:26;;;;;;;4.77;2.80;;;;;;;28.19;29.58;101105.25;5054975;28;20415;-72
2022/06/21 11:21:25;;;;;;;4.90;3.20;;;;;;;27.83;30.29;101103.75;5061104;28;20439;-72
2022/06/21 11:24:15;;;;;;;5.83;3.03;;;;;;;28.20;30.02;101103.44;5060763;28;20412;-72
2022/06/21 11:27:06;;;;;;;4.10;3.00;;;;;;;28.20;30.21;101103.44;5060872;28;20470;-72
2022/06/21 11:29:44;;;;;;;5.20;2.87;;;;;;;28.55;29.60;101109.38;5060101;28;20412;-72
2022/06/21 11:32:28;;;;;;;3.30;2.87;;;;;;;27.64;30.70;101108.41;5059774;28;20495;-73
2022/06/21 11:35:07;;;;;;;4.80;3.40;;;;;;;26.91;31.53;101114.13;5060453;28;20431;-71
2022/06/21 11:37:56;;;;;;;3.40;2.90;;;;;;;27.24;30.18;101114.16;5056817;28;20453;-73
2022/06/21 11:40:33;;;;;;;4.13;3.73;;;;;;;26.65;31.33;101109.19;5053009;28;20715;-72
2022/06/21 11:42:58;;;;;;;3.60;3.00;;;;;;;26.56;31.68;101113.22;5060556;28;20407;-72
2022/06/21 11:45:33;;;;;;;3.90;2.70;;;;;;;26.36;31.91;101121.41;5060377;28;20843;-70
2022/06/21 11:48:07;;;;;;;3.60;3.03;;;;;;;27.09;30.71;101109.59;5058324;28;20172;-70
2022/06/21 11:50:51;;;;;;;5.47;3.13;;;;;;;27.60;30.61;101114.88;5058071;28;20697;-72
2022/06/21 11:53:35;;;;;;;3.17;2.87;;;;;;;26.92;30.71;101113.22;5057265;28;20459;-72
2022/06/21 11:56:14;;;;;;;4.00;3.17;;;;;;;26.00;31.83;101114.22;5059842;28;20408;-71
2022/06/21 11:59:04;;;;;;;3.90;2.90;;;;;;;26.68;31.97;101110.84;5045199;28;20412;-72
2022/06/21 12:01:39;;;;;;;3.63;3.20;;;;;;;26.69;31.46;101109.91;5059530;28;20418;-72
2022/06/21 12:04:11;;;;;;;4.50;3.10;;;;;;;27.30;30.85;101103.06;5038928;28;20853;-69
2022/06/21 12:06:48;;;;;;;5.47;3.30;;;;;;;27.09;31.16;101091.75;5053428;28;20467;-71
2022/06/21 12:09:35;;;;;;;4.10;3.20;;;;;;;27.03;30.96;101089.41;5065146;28;20439;-72
2022/06/21 12:12:28;;;;;;;3.40;3.07;;;;;;;26.34;30.91;101091.19;5063511;28;20527;-71
2022/06/21 12:15:02;;;;;;;3.97;2.93;;;;;;;26.80;31.29;101088.81;5057354;28;20467;-71
2022/06/21 12:17:38;;;;;;;4.70;3.47;;;;;;;26.78;31.64;101096.06;5065269;28;20846;-71
2022/06/21 12:20:12;;;;;;;4.30;3.20;;;;;;;25.99;31.11;101091.13;5065742;28;20852;-70